createdAt,value
2023-01-22T00:01:29.615Z,6.00
2023-01-22T00:06:32.574Z,7.00
2023-01-22T00:11:35.297Z,6.90
2023-01-22T00:16:39.623Z,5.90
2023-01-22T00:21:42.375Z,6.30
2023-01-22T00:26:45.561Z,4.00
2023-01-22T00:31:48.420Z,6.00
2023-01-22T00:36:51.365Z,5.70
2023-01-22T00:41:54.163Z,3.50
2023-01-22T00:46:56.918Z,5.40
2023-01-22T00:51:59.701Z,4.50
2023-01-22T00:57:02.457Z,5.20
2023-01-22T01:02:06.819Z,6.20
2023-01-22T01:07:09.900Z,6.30
2023-01-22T01:12:12.648Z,5.50
2023-01-22T01:17:15.427Z,4.90
2023-01-22T01:22:18.170Z,6.60
2023-01-22T01:27:20.958Z,6.00
2023-01-22T01:32:24.160Z,4.30
2023-01-22T01:37:27.019Z,6.20
2023-01-22T01:42:36.042Z,7.90
2023-01-22T01:47:38.787Z,6.20
2023-01-22T01:52:41.655Z,7.20
2023-01-22T01:57:44.895Z,6.90
2023-01-22T02:02:48.796Z,7.00
2023-01-22T02:07:51.629Z,7.10
2023-01-22T02:12:57.808Z,6.40
2023-01-22T02:18:00.579Z,5.80
2023-01-22T02:23:03.886Z,7.60
2023-01-22T02:28:06.648Z,7.70
2023-01-22T02:33:09.997Z,4.80
2023-01-22T02:38:14.233Z,6.90
2023-01-22T02:43:17.640Z,7.00
2023-01-22T02:48:20.424Z,6.80
2023-01-22T02:53:23.205Z,6.80
2023-01-22T02:58:26.247Z,7.40
2023-01-22T03:03:28.983Z,7.40
2023-01-22T03:08:31.704Z,6.50
2023-01-22T03:13:53.383Z,6.60
2023-01-22T03:19:15.268Z,4.70
2023-01-22T03:24:18.043Z,7.20
2023-01-22T03:29:20.812Z,6.90
2023-01-22T03:34:25.774Z,6.30
2023-01-22T03:39:28.529Z,6.10
2023-01-22T03:44:31.249Z,7.70
2023-01-22T03:49:34.088Z,7.80
2023-01-22T03:54:38.663Z,5.30
2023-01-22T03:59:41.415Z,7.60
2023-01-22T04:04:44.797Z,9.30
2023-01-22T04:09:47.608Z,9.10
2023-01-22T04:14:50.343Z,7.60
2023-01-22T04:19:53.150Z,6.30
2023-01-22T04:24:55.895Z,7.90
2023-01-22T04:29:58.683Z,7.00
2023-01-22T04:35:01.573Z,6.80
2023-01-22T04:40:05.693Z,5.70
2023-01-22T04:45:09.661Z,8.10
2023-01-22T04:50:19.082Z,8.30
2023-01-22T04:55:22.973Z,6.90
2023-01-22T05:00:26.973Z,6.90
2023-01-22T05:05:31.050Z,5.60
2023-01-22T05:10:33.828Z,6.70
2023-01-22T05:15:36.607Z,6.80
2023-01-22T05:20:39.343Z,7.70
2023-01-22T05:25:47.782Z,7.90
2023-01-22T05:30:50.667Z,8.30
2023-01-22T05:36:01.611Z,7.50
2023-01-22T05:41:04.771Z,8.60
2023-01-22T05:46:07.576Z,8.30
2023-01-22T05:51:11.059Z,6.90
2023-01-22T05:56:13.918Z,7.90
2023-01-22T06:01:17.132Z,8.00
2023-01-22T06:06:20.081Z,7.00
2023-01-22T06:11:22.896Z,7.30
2023-01-22T06:16:25.631Z,6.70
2023-01-22T06:21:28.513Z,7.00
2023-01-22T06:26:31.282Z,7.60
2023-01-22T06:31:34.206Z,7.70
2023-01-22T06:36:37.019Z,8.20
2023-01-22T06:41:39.782Z,7.90
2023-01-22T06:46:42.695Z,7.70
2023-01-22T06:51:45.503Z,7.00
2023-01-22T06:56:48.238Z,9.20
2023-01-22T07:01:51.341Z,8.70
2023-01-22T07:06:54.077Z,5.80
2023-01-22T07:11:58.827Z,8.90
2023-01-22T07:17:01.645Z,10.60
2023-01-22T07:22:04.702Z,9.50
2023-01-22T07:27:07.931Z,7.90
2023-01-22T07:32:10.791Z,8.80
2023-01-22T07:37:13.567Z,9.60
2023-01-22T07:42:16.321Z,8.50
2023-01-22T07:47:19.179Z,8.40
2023-01-22T07:52:21.923Z,9.10
2023-01-22T07:57:24.795Z,9.30
2023-01-22T08:02:27.543Z,7.50
2023-01-22T08:07:31.141Z,7.70
2023-01-22T08:12:34.044Z,8.70
2023-01-22T08:17:36.939Z,8.80
2023-01-22T08:22:40.121Z,8.30
2023-01-22T08:27:42.958Z,10.70
2023-01-22T08:32:46.635Z,7.40
2023-01-22T08:37:52.204Z,9.80
2023-01-22T08:42:55.664Z,8.60
2023-01-22T08:47:59.982Z,8.70
2023-01-22T08:53:02.723Z,9.10
2023-01-22T08:58:05.471Z,10.70
2023-01-22T09:03:08.843Z,9.20
2023-01-22T09:08:11.664Z,9.10
2023-01-22T09:13:15.891Z,9.20
2023-01-22T09:18:18.658Z,8.90
2023-01-22T09:23:22.356Z,9.70
2023-01-22T09:28:25.262Z,8.30
2023-01-22T09:33:28.065Z,8.90
2023-01-22T09:38:30.827Z,8.80
2023-01-22T09:43:52.867Z,8.90
2023-01-22T09:49:08.818Z,10.50
2023-01-22T09:54:15.929Z,10.30
2023-01-22T10:04:29.459Z,9.30
2023-01-22T10:09:34.217Z,6.40
2023-01-22T10:14:37.030Z,9.70
2023-01-22T10:19:45.098Z,7.20
2023-01-22T10:24:48.807Z,7.30
2023-01-22T10:30:02.413Z,8.10
2023-01-22T10:35:17.006Z,8.20
2023-01-22T10:40:38.211Z,7.80
2023-01-22T10:45:53.419Z,8.90
2023-01-22T10:51:21.043Z,8.40
2023-01-22T10:56:30.499Z,8.00
2023-01-22T11:01:37.566Z,8.10
2023-01-22T11:06:49.789Z,7.70
2023-01-22T11:12:17.283Z,9.50
2023-01-22T11:17:33.699Z,7.80
2023-01-22T11:22:44.382Z,8.20
2023-01-22T11:28:13.774Z,7.10
2023-01-22T11:33:49.912Z,7.10
2023-01-22T11:38:59.386Z,7.20
2023-01-22T11:44:14.283Z,6.90
2023-01-22T11:49:23.535Z,7.10
2023-01-22T11:54:32.568Z,7.00
2023-01-22T12:00:00.330Z,7.50
2023-01-22T12:05:25.380Z,7.50
2023-01-22T12:10:42.060Z,7.70
2023-01-22T12:15:57.108Z,8.10
2023-01-22T12:21:07.474Z,7.90
2023-01-22T12:26:17.877Z,7.50
2023-01-22T12:31:29.718Z,6.80
2023-01-22T12:36:34.543Z,5.80
2023-01-22T12:42:09.133Z,7.70
2023-01-22T12:47:21.664Z,6.90
2023-01-22T12:52:36.347Z,7.60
2023-01-22T12:57:42.096Z,8.50
2023-01-22T13:02:46.921Z,7.30
2023-01-22T13:08:04.476Z,6.70
2023-01-22T13:13:13.136Z,7.00
2023-01-22T13:18:23.744Z,7.30
2023-01-22T13:23:27.268Z,7.70
2023-01-22T13:28:30.418Z,7.60
2023-01-22T13:33:33.178Z,7.00
2023-01-22T13:38:35.924Z,7.00
2023-01-22T13:43:40.466Z,7.40
2023-01-22T13:48:43.652Z,6.40
2023-01-22T13:53:52.578Z,8.70
2023-01-22T13:59:36.354Z,7.70
2023-01-22T14:04:39.082Z,8.00
2023-01-22T14:09:41.841Z,5.80
2023-01-22T14:14:45.267Z,4.50
2023-01-22T14:19:48.025Z,5.20
2023-01-22T14:24:52.761Z,7.20
2023-01-22T14:29:56.049Z,8.00
2023-01-22T14:34:59.998Z,8.20
2023-01-22T14:40:02.804Z,8.00
2023-01-22T14:45:06.552Z,6.80
2023-01-22T14:50:10.166Z,6.90
2023-01-22T14:55:13.164Z,6.80
2023-01-22T15:00:21.363Z,8.20
2023-01-22T15:05:25.692Z,8.10
2023-01-22T15:10:28.949Z,4.70
2023-01-22T15:15:34.721Z,7.10
2023-01-22T15:20:38.165Z,7.00
2023-01-22T15:25:42.271Z,9.30
2023-01-22T15:30:47.050Z,7.10
2023-01-22T15:35:49.989Z,6.80
2023-01-22T15:41:21.307Z,8.60
2023-01-22T15:46:26.619Z,6.80
2023-01-22T15:51:29.747Z,6.80
2023-01-22T15:56:36.183Z,7.70
2023-01-22T16:01:39.317Z,7.70
2023-01-22T16:06:42.172Z,6.40
2023-01-22T16:11:45.069Z,6.10
2023-01-22T16:16:47.934Z,6.70
2023-01-22T16:21:52.451Z,6.10
2023-01-22T16:26:55.556Z,6.20
2023-01-22T16:32:03.377Z,4.40
2023-01-22T16:37:06.636Z,5.90
2023-01-22T16:42:09.474Z,7.00
2023-01-22T16:47:12.372Z,5.80
2023-01-22T16:52:22.425Z,5.00
2023-01-22T16:57:25.998Z,4.60
2023-01-22T17:02:28.882Z,4.70
2023-01-22T17:07:34.360Z,6.40
2023-01-22T17:12:37.262Z,6.90
2023-01-22T17:17:40.330Z,6.60
2023-01-22T17:22:44.315Z,5.30
2023-01-22T17:27:47.952Z,5.10
2023-01-22T17:32:50.820Z,4.10
2023-01-22T17:37:53.654Z,3.50
2023-01-22T17:42:56.583Z,4.90
2023-01-22T17:48:00.116Z,2.70
2023-01-22T17:53:02.906Z,4.00
2023-01-22T17:58:06.054Z,4.40
2023-01-22T18:03:08.835Z,4.30
2023-01-22T18:08:11.791Z,5.70
2023-01-22T18:13:14.634Z,5.80
2023-01-22T18:18:18.094Z,4.50
2023-01-22T18:23:20.904Z,3.80
2023-01-22T18:28:26.235Z,5.30
2023-01-22T18:33:29.031Z,5.50
2023-01-22T18:38:32.563Z,5.80
2023-01-22T18:43:35.368Z,5.50
2023-01-22T18:48:41.221Z,6.60
2023-01-22T18:53:43.991Z,6.90
2023-01-22T18:58:48.525Z,5.60
2023-01-22T19:03:58.370Z,6.30
2023-01-22T19:09:04.832Z,7.10
2023-01-22T19:14:11.923Z,6.90
2023-01-22T19:19:15.336Z,6.10
2023-01-22T19:24:22.441Z,7.30
2023-01-22T19:29:26.652Z,6.50
2023-01-22T19:34:30.794Z,5.70
2023-01-22T19:39:34.164Z,7.10
2023-01-22T19:44:37.501Z,4.50
2023-01-22T19:49:40.336Z,6.40
2023-01-22T19:54:47.484Z,6.40
2023-01-22T20:04:55.440Z,4.90
2023-01-22T20:09:58.168Z,7.80
2023-01-22T20:15:00.922Z,6.50
2023-01-22T20:20:05.145Z,6.50
2023-01-22T20:25:09.184Z,5.80
2023-01-22T20:30:12.219Z,6.20
2023-01-22T20:35:16.329Z,5.50
2023-01-22T20:40:19.377Z,5.00
2023-01-22T20:45:22.140Z,7.30
2023-01-22T20:50:24.929Z,6.10
2023-01-22T20:55:27.756Z,6.60
2023-01-22T21:00:30.626Z,6.30
2023-01-22T21:05:35.469Z,6.40
2023-01-22T21:10:38.320Z,6.60
2023-01-22T21:15:41.060Z,6.50
2023-01-22T21:20:43.806Z,6.70
2023-01-22T21:25:46.548Z,6.60
2023-01-22T21:30:49.437Z,6.30
2023-01-22T21:35:52.489Z,6.50
2023-01-22T21:41:12.675Z,6.60
2023-01-22T21:46:27.609Z,6.40
2023-01-22T21:51:31.252Z,7.40
2023-01-22T21:56:34.075Z,8.00
2023-01-22T22:01:37.086Z,8.90
2023-01-22T22:06:39.917Z,6.60
2023-01-22T22:11:43.333Z,6.20
2023-01-22T22:16:47.471Z,6.80
2023-01-22T22:21:54.924Z,7.40
2023-01-22T22:26:57.694Z,7.20
2023-01-22T22:32:00.818Z,6.50
2023-01-22T22:37:03.730Z,7.00
2023-01-22T22:42:06.470Z,7.10
2023-01-22T22:47:09.227Z,7.50
2023-01-22T22:52:13.365Z,7.30
2023-01-22T22:57:16.107Z,4.70
2023-01-22T23:02:18.857Z,6.90
2023-01-22T23:07:22.231Z,8.80
2023-01-22T23:12:26.979Z,7.80
2023-01-22T23:17:30.692Z,5.90
2023-01-22T23:22:33.413Z,6.90
2023-01-22T23:27:36.181Z,6.30
2023-01-22T23:32:40.008Z,7.10
2023-01-22T23:37:42.735Z,5.30
2023-01-22T23:42:49.597Z,6.80
2023-01-22T23:47:52.835Z,6.90
2023-01-22T23:52:55.600Z,8.60
2023-01-22T23:57:58.333Z,6.50
